createdAt,value
2022-09-11T00:00:59.338Z,14.03
2022-09-11T00:03:28.114Z,13.96
2022-09-11T00:05:54.902Z,14.07
2022-09-11T00:08:22.071Z,13.91
2022-09-11T00:10:49.047Z,13.95
2022-09-11T00:13:23.186Z,14.04
2022-09-11T00:15:51.600Z,13.99
2022-09-11T00:18:23.639Z,13.91
2022-09-11T00:20:51.685Z,13.84
2022-09-11T00:23:19.564Z,13.75
2022-09-11T00:25:47.411Z,13.87
2022-09-11T00:28:24.481Z,13.84
2022-09-11T00:31:14.008Z,13.92
2022-09-11T00:33:42.019Z,13.85
2022-09-11T00:36:15.104Z,13.75
2022-09-11T00:38:42.689Z,13.84
2022-09-11T00:41:14.380Z,13.75
2022-09-11T00:44:03.812Z,13.79
2022-09-11T00:46:39.082Z,13.66
2022-09-11T00:49:17.436Z,13.86
2022-09-11T00:51:47.083Z,13.77
2022-09-11T00:54:16.216Z,13.83
2022-09-11T00:56:44.067Z,13.75
2022-09-11T00:59:12.669Z,13.61
2022-09-11T01:01:39.381Z,13.59
2022-09-11T01:04:10.649Z,13.65
2022-09-11T01:06:39.732Z,13.70
2022-09-11T01:09:06.287Z,13.57
2022-09-11T01:11:44.728Z,13.44
2022-09-11T01:14:33.687Z,13.38
2022-09-11T01:17:15.477Z,13.41
2022-09-11T01:19:44.927Z,13.41
2022-09-11T01:22:35.798Z,13.32
2022-09-11T01:25:20.493Z,13.14
2022-09-11T01:27:47.208Z,12.69
2022-09-11T01:30:22.012Z,12.24
2022-09-11T01:33:13.008Z,12.16
2022-09-11T01:36:00.822Z,12.10
2022-09-11T01:38:52.357Z,12.30
2022-09-11T01:41:33.922Z,12.47
2022-09-11T01:44:18.148Z,12.40
2022-09-11T01:46:49.963Z,12.69
2022-09-11T01:49:21.837Z,12.72
2022-09-11T01:51:55.255Z,12.89
2022-09-11T01:54:26.455Z,12.99
2022-09-11T01:56:57.372Z,13.06
2022-09-11T01:59:31.532Z,13.02
2022-09-11T02:02:06.787Z,12.97
2022-09-11T02:04:44.444Z,12.91
2022-09-11T02:07:16.676Z,13.09
2022-09-11T02:10:00.096Z,13.06
2022-09-11T02:12:34.143Z,13.29
2022-09-11T02:15:01.056Z,13.23
2022-09-11T02:17:44.064Z,13.12
2022-09-11T02:20:14.001Z,13.12
2022-09-11T02:22:40.865Z,13.35
2022-09-11T02:25:07.865Z,13.33
2022-09-11T02:27:34.783Z,13.42
2022-09-11T02:30:01.582Z,13.38
2022-09-11T02:32:28.881Z,13.33
2022-09-11T02:34:56.973Z,13.49
2022-09-11T02:37:39.543Z,13.42
2022-09-11T02:40:31.379Z,13.67
2022-09-11T02:43:16.279Z,13.63
2022-09-11T02:45:54.919Z,13.64
2022-09-11T02:48:46.695Z,13.66
2022-09-11T02:51:38.386Z,13.51
2022-09-11T02:54:29.161Z,13.41
2022-09-11T02:57:07.795Z,13.45
2022-09-11T02:59:42.407Z,13.42
2022-09-11T03:02:18.331Z,13.52
2022-09-11T03:04:45.697Z,13.42
2022-09-11T03:07:12.243Z,13.30
2022-09-11T03:09:38.824Z,13.24
2022-09-11T03:12:06.075Z,13.18
2022-09-11T03:14:32.602Z,12.83
2022-09-11T03:16:59.204Z,12.77
2022-09-11T03:19:25.864Z,12.80
2022-09-11T03:21:52.370Z,12.87
2022-09-11T03:24:19.001Z,13.20
2022-09-11T03:26:48.590Z,13.05
2022-09-11T03:29:15.174Z,13.04
2022-09-11T03:31:42.198Z,13.04
2022-09-11T03:34:09.036Z,12.86
2022-09-11T03:36:35.579Z,12.77
2022-09-11T03:39:02.325Z,12.93
2022-09-11T03:41:28.920Z,12.72
2022-09-11T03:43:55.590Z,12.48
2022-09-11T03:46:22.727Z,12.46
2022-09-11T03:48:49.233Z,12.39
2022-09-11T03:51:17.312Z,12.53
2022-09-11T03:53:44.650Z,12.55
2022-09-11T03:56:12.235Z,12.63
2022-09-11T03:58:38.777Z,12.39
2022-09-11T04:01:14.018Z,12.35
2022-09-11T04:03:41.673Z,12.26
2022-09-11T04:06:08.773Z,12.23
2022-09-11T04:08:35.325Z,12.34
2022-09-11T04:11:04.431Z,12.43
2022-09-11T04:13:33.113Z,12.40
2022-09-11T04:16:08.325Z,12.33
2022-09-11T04:18:37.177Z,12.34
2022-09-11T04:21:09.495Z,12.27
2022-09-11T04:23:36.712Z,12.03
2022-09-11T04:26:04.265Z,12.09
2022-09-11T04:28:31.703Z,12.11
2022-09-11T04:31:04.861Z,11.99
2022-09-11T04:33:31.481Z,12.13
2022-09-11T04:35:58.027Z,11.89
2022-09-11T04:38:24.745Z,11.93
2022-09-11T04:40:51.416Z,11.94
2022-09-11T04:43:20.172Z,11.78
2022-09-11T04:45:47.008Z,11.81
2022-09-11T04:48:13.593Z,11.94
2022-09-11T04:50:41.365Z,11.78
2022-09-11T04:53:24.444Z,11.61
2022-09-11T04:55:51.041Z,11.60
2022-09-11T04:58:20.342Z,11.66
2022-09-11T05:00:55.203Z,11.44
2022-09-11T05:03:21.736Z,11.68
2022-09-11T05:05:48.281Z,11.75
2022-09-11T05:08:14.808Z,11.67
2022-09-11T05:10:42.355Z,11.70
2022-09-11T05:13:09.206Z,11.86
2022-09-11T05:15:35.688Z,12.08
2022-09-11T05:18:03.285Z,12.07
2022-09-11T05:20:31.066Z,12.10
2022-09-11T05:22:58.483Z,12.15
2022-09-11T05:25:25.551Z,12.13
2022-09-11T05:27:52.081Z,12.22
2022-09-11T05:30:21.084Z,12.25
2022-09-11T05:32:50.265Z,12.25
2022-09-11T05:35:16.926Z,12.25
2022-09-11T05:37:43.429Z,12.48
2022-09-11T05:40:10.437Z,12.35
2022-09-11T05:42:37.017Z,12.36
2022-09-11T05:45:03.819Z,12.26
2022-09-11T05:47:30.325Z,12.18
2022-09-11T05:49:56.929Z,12.33
2022-09-11T05:52:25.630Z,12.21
2022-09-11T05:54:53.745Z,12.28
2022-09-11T05:57:20.269Z,12.13
2022-09-11T05:59:46.760Z,12.14
2022-09-11T06:02:14.133Z,12.22
2022-09-11T06:04:40.689Z,12.10
2022-09-11T06:07:07.219Z,12.07
2022-09-11T06:09:33.876Z,12.11
2022-09-11T06:12:01.725Z,11.98
2022-09-11T06:14:28.259Z,12.20
2022-09-11T06:16:57.330Z,12.11
2022-09-11T06:19:23.950Z,12.27
2022-09-11T06:21:50.443Z,12.37
2022-09-11T06:24:16.942Z,12.45
2022-09-11T06:26:46.578Z,12.63
2022-09-11T06:29:14.935Z,12.71
2022-09-11T06:31:41.562Z,12.85
2022-09-11T06:34:08.175Z,12.89
2022-09-11T06:36:34.715Z,12.95
2022-09-11T06:39:02.319Z,13.07
2022-09-11T06:41:28.921Z,12.93
2022-09-11T06:43:55.593Z,13.20
2022-09-11T06:46:24.097Z,13.26
2022-09-11T06:48:51.912Z,13.35
2022-09-11T06:51:20.393Z,13.37
2022-09-11T06:53:50.203Z,13.51
2022-09-11T06:56:20.628Z,13.47
2022-09-11T06:58:47.441Z,13.70
2022-09-11T07:01:16.313Z,13.82
2022-09-11T07:03:45.203Z,13.78
2022-09-11T07:06:16.436Z,13.94
2022-09-11T07:08:43.146Z,13.92
2022-09-11T07:11:12.933Z,14.16
2022-09-11T07:13:41.019Z,14.30
2022-09-11T07:16:10.070Z,14.52
2022-09-11T07:18:39.620Z,14.68
2022-09-11T07:21:21.596Z,14.84
2022-09-11T07:23:50.856Z,15.12
2022-09-11T07:26:19.279Z,15.21
2022-09-11T07:28:51.633Z,15.57
2022-09-11T07:31:24.330Z,15.74
2022-09-11T07:33:52.643Z,16.05
2022-09-11T07:36:25.167Z,16.30
2022-09-11T07:38:52.176Z,16.56
2022-09-11T07:41:21.408Z,17.07
2022-09-11T07:43:53.012Z,17.63
2022-09-11T07:46:24.693Z,18.03
2022-09-11T07:48:51.415Z,18.45
2022-09-11T07:51:19.164Z,18.81
2022-09-11T07:53:50.327Z,19.17
2022-09-11T07:56:21.850Z,19.44
2022-09-11T07:58:49.919Z,19.56
2022-09-11T08:01:21.553Z,19.90
2022-09-11T08:03:49.509Z,20.21
2022-09-11T08:06:23.957Z,20.49
2022-09-11T08:08:55.355Z,20.86
2022-09-11T08:11:23.176Z,21.22
2022-09-11T08:13:55.125Z,21.65
2022-09-11T08:16:28.060Z,22.13
2022-09-11T08:18:54.882Z,22.44
2022-09-11T08:21:22.482Z,22.73
2022-09-11T08:23:52.105Z,23.23
2022-09-11T08:26:27.410Z,23.70
2022-09-11T08:28:55.880Z,24.03
2022-09-11T08:31:26.914Z,24.16
2022-09-11T08:33:55.914Z,24.33
2022-09-11T08:36:23.252Z,24.40
2022-09-11T08:38:51.168Z,24.71
2022-09-11T08:41:36.056Z,24.48
2022-09-11T08:44:16.597Z,24.45
2022-09-11T08:46:50.786Z,24.38
2022-09-11T08:49:35.017Z,24.59
2022-09-11T08:52:06.060Z,24.96
2022-09-11T08:54:36.512Z,25.14
2022-09-11T08:57:21.301Z,25.35
2022-09-11T09:00:18.154Z,25.54
2022-09-11T09:03:05.192Z,26.01
2022-09-11T09:05:36.930Z,26.52
2022-09-11T09:08:21.753Z,26.67
2022-09-11T09:11:04.858Z,26.26
2022-09-11T09:13:31.334Z,26.56
2022-09-11T09:16:20.211Z,26.83
2022-09-11T09:18:55.179Z,26.93
2022-09-11T09:21:32.533Z,27.19
2022-09-11T09:24:02.980Z,27.23
2022-09-11T09:26:40.441Z,27.70
2022-09-11T09:29:14.781Z,28.08
2022-09-11T09:31:44.429Z,27.82
2022-09-11T09:34:23.130Z,27.58
2022-09-11T09:36:59.231Z,27.86
2022-09-11T09:39:26.341Z,28.46
2022-09-11T09:42:02.932Z,28.78
2022-09-11T09:44:51.075Z,28.89
2022-09-11T09:47:17.866Z,28.30
2022-09-11T09:49:45.391Z,28.35
2022-09-11T09:52:20.664Z,28.49
2022-09-11T09:55:02.631Z,28.63
2022-09-11T09:57:34.522Z,29.15
2022-09-11T10:00:16.281Z,29.47
2022-09-11T10:02:49.197Z,29.62
2022-09-11T10:05:24.745Z,29.53
2022-09-11T10:07:59.117Z,29.63
2022-09-11T10:10:33.022Z,30.23
2022-09-11T10:13:22.606Z,30.93
2022-09-11T10:15:52.701Z,31.33
2022-09-11T10:18:37.641Z,31.59
2022-09-11T10:21:12.924Z,32.02
2022-09-11T10:23:53.409Z,32.06
2022-09-11T10:26:41.127Z,31.51
2022-09-11T10:29:14.268Z,31.45
2022-09-11T10:31:48.746Z,31.66
2022-09-11T10:34:22.819Z,31.70
2022-09-11T10:37:03.086Z,31.88
2022-09-11T10:39:32.672Z,32.28
2022-09-11T10:42:10.649Z,32.35
2022-09-11T10:44:42.182Z,32.50
2022-09-11T10:47:20.746Z,32.64
2022-09-11T10:50:22.875Z,33.00
2022-09-11T10:53:15.308Z,33.49
2022-09-11T10:55:51.015Z,33.91
2022-09-11T10:58:24.081Z,33.65
2022-09-11T11:00:52.127Z,33.48
2022-09-11T11:03:23.129Z,32.69
2022-09-11T11:05:56.206Z,33.05
2022-09-11T11:08:59.749Z,33.25
2022-09-11T11:11:44.239Z,33.24
2022-09-11T11:14:31.154Z,33.26
2022-09-11T11:17:31.731Z,33.75
2022-09-11T11:20:26.708Z,34.36
2022-09-11T11:23:12.275Z,34.62
2022-09-11T11:25:59.730Z,34.50
2022-09-11T11:28:47.746Z,34.56
2022-09-11T11:31:35.966Z,34.82
2022-09-11T11:34:29.120Z,34.93
2022-09-11T11:37:03.563Z,34.96
2022-09-11T11:39:57.786Z,35.03
2022-09-11T11:42:34.963Z,35.14
2022-09-11T11:45:16.619Z,34.33
2022-09-11T11:47:45.061Z,33.48
2022-09-11T11:50:31.853Z,33.36
2022-09-11T11:53:24.508Z,33.45
2022-09-11T11:56:29.311Z,33.74
2022-09-11T11:59:17.626Z,34.49
2022-09-11T12:01:54.535Z,34.91
2022-09-11T12:04:45.729Z,35.40
2022-09-11T12:07:24.911Z,35.82
2022-09-11T12:09:57.395Z,35.62
2022-09-11T12:12:26.481Z,34.98
2022-09-11T12:14:56.282Z,34.86
2022-09-11T12:17:28.334Z,35.08
2022-09-11T12:20:10.607Z,35.24
2022-09-11T12:22:45.717Z,35.41
2022-09-11T12:25:22.299Z,35.86
2022-09-11T12:27:49.003Z,36.17
2022-09-11T12:30:18.624Z,36.22
2022-09-11T12:32:53.384Z,36.21
2022-09-11T12:35:46.647Z,36.29
2022-09-11T12:38:30.326Z,36.51
2022-09-11T12:41:07.258Z,35.84
2022-09-11T12:43:36.780Z,35.82
2022-09-11T12:46:12.732Z,35.51
2022-09-11T12:49:00.243Z,35.51
2022-09-11T12:51:32.412Z,35.81
2022-09-11T12:54:02.929Z,36.12
2022-09-11T12:56:34.876Z,36.48
2022-09-11T12:59:07.585Z,36.40
2022-09-11T13:01:38.385Z,36.61
2022-09-11T13:04:10.992Z,36.57
2022-09-11T13:06:50.244Z,36.23
2022-09-11T13:09:19.739Z,35.92
2022-09-11T13:11:49.671Z,35.66
2022-09-11T13:14:28.467Z,36.05
2022-09-11T13:17:00.487Z,36.15
2022-09-11T13:19:39.350Z,36.15
2022-09-11T13:22:31.161Z,36.33
2022-09-11T13:25:13.298Z,36.66
2022-09-11T13:27:43.443Z,36.92
2022-09-11T13:30:16.687Z,36.80
2022-09-11T13:32:45.404Z,36.81
2022-09-11T13:35:17.035Z,36.86
2022-09-11T13:37:52.970Z,36.89
2022-09-11T13:40:35.100Z,36.75
2022-09-11T13:43:02.449Z,36.79
2022-09-11T13:45:29.094Z,36.64
2022-09-11T13:47:58.373Z,36.12
2022-09-11T13:50:25.578Z,35.75
2022-09-11T13:52:56.364Z,35.83
2022-09-11T13:55:27.566Z,36.07
2022-09-11T13:58:02.015Z,36.05
2022-09-11T14:00:39.207Z,36.27
2022-09-11T14:03:14.534Z,36.35
2022-09-11T14:05:49.219Z,36.42
2022-09-11T14:08:25.927Z,36.33
2022-09-11T14:10:59.173Z,36.18
2022-09-11T14:13:53.411Z,36.25
2022-09-11T14:16:22.596Z,36.20
2022-09-11T14:18:59.516Z,35.96
2022-09-11T14:21:31.545Z,35.25
2022-09-11T14:23:59.326Z,35.16
2022-09-11T14:26:41.049Z,34.39
2022-09-11T14:29:31.458Z,33.80
2022-09-11T14:32:28.893Z,33.84
2022-09-11T14:34:57.619Z,33.93
2022-09-11T14:37:28.633Z,33.80
2022-09-11T14:40:01.099Z,33.52
2022-09-11T14:42:33.630Z,33.32
2022-09-11T14:45:08.294Z,33.31
2022-09-11T14:47:34.800Z,33.47
2022-09-11T14:50:01.302Z,33.81
2022-09-11T14:52:29.481Z,33.61
2022-09-11T14:54:59.072Z,33.59
2022-09-11T14:57:32.509Z,33.80
2022-09-11T15:00:02.052Z,33.65
2022-09-11T15:02:31.633Z,33.42
2022-09-11T15:04:59.039Z,33.48
2022-09-11T15:07:29.719Z,33.49
2022-09-11T15:09:56.362Z,33.43
2022-09-11T15:12:22.968Z,33.52
2022-09-11T15:14:57.039Z,33.35
2022-09-11T15:17:25.455Z,33.09
2022-09-11T15:20:01.181Z,32.93
2022-09-11T15:22:30.230Z,32.67
2022-09-11T15:24:57.070Z,32.54
2022-09-11T15:27:25.125Z,32.48
2022-09-11T15:29:52.246Z,32.02
2022-09-11T15:32:18.957Z,31.09
2022-09-11T15:34:46.389Z,30.48
2022-09-11T15:37:13.255Z,30.37
2022-09-11T15:39:39.817Z,30.35
2022-09-11T15:42:10.282Z,30.42
2022-09-11T15:44:37.141Z,30.38
2022-09-11T15:47:06.990Z,30.42
2022-09-11T15:49:41.194Z,30.12
2022-09-11T15:52:07.992Z,29.94
2022-09-11T15:54:34.516Z,29.75
2022-09-11T15:57:01.178Z,29.68
2022-09-11T15:59:29.842Z,29.49
2022-09-11T16:01:56.550Z,29.25
2022-09-11T16:04:28.273Z,29.22
2022-09-11T16:06:55.221Z,29.10
2022-09-11T16:09:24.730Z,28.81
2022-09-11T16:11:53.294Z,28.60
2022-09-11T16:14:25.353Z,28.24
2022-09-11T16:16:52.354Z,27.86
2022-09-11T16:19:21.536Z,27.76
2022-09-11T16:21:49.200Z,27.69
2022-09-11T16:24:16.016Z,27.55
2022-09-11T16:26:45.858Z,27.42
2022-09-11T16:29:18.116Z,27.42
2022-09-11T16:31:44.641Z,27.31
2022-09-11T16:34:11.205Z,27.20
2022-09-11T16:36:42.585Z,27.21
2022-09-11T16:39:12.432Z,27.11
2022-09-11T16:41:39.584Z,27.21
2022-09-11T16:44:08.632Z,27.12
2022-09-11T16:46:35.299Z,27.10
2022-09-11T16:49:02.624Z,27.16
2022-09-11T16:51:34.115Z,27.14
2022-09-11T16:54:02.570Z,27.20
2022-09-11T16:56:31.972Z,27.14
2022-09-11T16:59:02.369Z,27.17
2022-09-11T17:01:31.918Z,27.04
2022-09-11T17:04:03.899Z,26.94
2022-09-11T17:06:32.265Z,26.90
2022-09-11T17:09:04.663Z,26.93
2022-09-11T17:11:33.016Z,26.83
2022-09-11T17:14:03.428Z,26.85
2022-09-11T17:16:32.240Z,26.70
2022-09-11T17:19:01.574Z,26.79
2022-09-11T17:21:29.571Z,26.73
2022-09-11T17:23:57.614Z,26.64
2022-09-11T17:26:24.670Z,26.48
2022-09-11T17:28:55.059Z,26.38
2022-09-11T17:31:21.647Z,26.10
2022-09-11T17:33:49.064Z,26.02
2022-09-11T17:36:18.259Z,25.98
2022-09-11T17:38:46.433Z,25.70
2022-09-11T17:41:13.131Z,25.49
2022-09-11T17:43:40.640Z,25.36
2022-09-11T17:46:12.646Z,25.08
2022-09-11T17:48:39.934Z,24.70
2022-09-11T17:51:11.111Z,24.64
2022-09-11T17:53:41.469Z,24.40
2022-09-11T17:56:11.048Z,24.21
2022-09-11T17:58:38.266Z,24.03
2022-09-11T18:01:06.214Z,23.75
2022-09-11T18:03:34.664Z,23.70
2022-09-11T18:06:03.586Z,23.52
2022-09-11T18:08:33.132Z,23.39
2022-09-11T18:11:01.163Z,23.24
2022-09-11T18:13:34.595Z,23.14
2022-09-11T18:16:02.690Z,23.02
2022-09-11T18:18:30.659Z,22.88
2022-09-11T18:21:04.547Z,22.80
2022-09-11T18:23:31.082Z,22.59
2022-09-11T18:25:57.611Z,22.59
2022-09-11T18:28:24.146Z,22.61
2022-09-11T18:30:51.178Z,22.48
2022-09-11T18:33:17.792Z,22.36
2022-09-11T18:35:45.689Z,22.35
2022-09-11T18:38:12.847Z,22.25
2022-09-11T18:40:39.453Z,22.18
2022-09-11T18:43:08.846Z,22.11
2022-09-11T18:45:36.775Z,21.97
2022-09-11T18:48:04.805Z,21.86
2022-09-11T18:50:36.269Z,21.80
2022-09-11T18:53:03.116Z,21.82
2022-09-11T18:55:32.012Z,21.78
2022-09-11T18:58:01.967Z,21.72
2022-09-11T19:00:32.381Z,21.38
2022-09-11T19:03:01.964Z,21.40
2022-09-11T19:05:31.446Z,21.25
2022-09-11T19:08:00.229Z,21.34
2022-09-11T19:10:27.283Z,21.19
2022-09-11T19:12:54.225Z,21.20
2022-09-11T19:15:20.927Z,21.21
2022-09-11T19:17:48.882Z,21.17
2022-09-11T19:20:15.869Z,21.14
2022-09-11T19:22:42.483Z,21.09
2022-09-11T19:25:10.039Z,21.05
2022-09-11T19:27:37.245Z,20.98
2022-09-11T19:30:06.226Z,20.86
2022-09-11T19:32:33.256Z,20.75
2022-09-11T19:35:00.412Z,20.63
2022-09-11T19:37:28.322Z,20.64
2022-09-11T19:39:57.162Z,20.58
2022-09-11T19:42:23.936Z,20.56
2022-09-11T19:44:54.358Z,20.52
2022-09-11T19:47:24.807Z,20.47
2022-09-11T19:49:51.699Z,20.31
2022-09-11T19:52:18.418Z,20.40
2022-09-11T19:54:44.911Z,20.38
2022-09-11T19:57:11.393Z,20.33
2022-09-11T19:59:38.103Z,20.18
2022-09-11T20:02:06.893Z,20.20
2022-09-11T20:04:33.443Z,20.09
2022-09-11T20:07:05.969Z,19.92
2022-09-11T20:09:33.611Z,20.06
2022-09-11T20:12:01.515Z,20.06
2022-09-11T20:14:29.807Z,19.97
2022-09-11T20:16:56.363Z,19.77
2022-09-11T20:19:22.929Z,19.89
2022-09-11T20:21:49.576Z,19.85
2022-09-11T20:24:16.504Z,19.76
2022-09-11T20:26:43.222Z,19.55
2022-09-11T20:29:14.103Z,19.64
2022-09-11T20:31:47.572Z,19.46
2022-09-11T20:34:16.270Z,19.58
2022-09-11T20:36:43.023Z,19.57
2022-09-11T20:39:12.198Z,19.45
2022-09-11T20:41:39.324Z,19.49
2022-09-11T20:44:05.904Z,19.35
2022-09-11T20:46:32.565Z,19.22
2022-09-11T20:49:00.809Z,19.09
2022-09-11T20:51:27.883Z,18.88
2022-09-11T20:53:55.492Z,18.88
2022-09-11T20:56:23.953Z,18.73
2022-09-11T20:58:51.239Z,18.78
2022-09-11T21:01:21.471Z,18.62
2022-09-11T21:03:50.670Z,18.47
2022-09-11T21:06:22.062Z,18.51
2022-09-11T21:08:52.989Z,18.48
2022-09-11T21:11:19.589Z,18.27
2022-09-11T21:13:46.223Z,18.22
2022-09-11T21:16:21.994Z,18.36
2022-09-11T21:18:51.126Z,18.27
2022-09-11T21:21:19.257Z,18.27
2022-09-11T21:23:46.131Z,18.18
2022-09-11T21:26:15.478Z,18.11
2022-09-11T21:28:42.323Z,18.03
2022-09-11T21:31:09.565Z,17.98
2022-09-11T21:33:40.173Z,17.78
2022-09-11T21:36:10.250Z,17.81
2022-09-11T21:38:40.129Z,17.97
2022-09-11T21:41:09.189Z,17.72
2022-09-11T21:43:35.822Z,17.67
2022-09-11T21:46:03.922Z,17.60
2022-09-11T21:48:35.756Z,17.66
2022-09-11T21:51:08.317Z,17.56
2022-09-11T21:53:34.920Z,17.57
2022-09-11T21:56:01.763Z,17.52
2022-09-11T21:58:28.402Z,17.48
2022-09-11T22:00:54.993Z,17.40
2022-09-11T22:03:21.536Z,17.35
2022-09-11T22:05:49.253Z,17.42
2022-09-11T22:08:17.737Z,17.35
2022-09-11T22:10:47.004Z,17.26
2022-09-11T22:13:14.024Z,17.13
2022-09-11T22:15:45.541Z,17.08
2022-09-11T22:18:12.990Z,17.07
2022-09-11T22:20:40.691Z,17.12
2022-09-11T22:23:08.127Z,16.92
2022-09-11T22:25:36.887Z,17.00
2022-09-11T22:28:04.825Z,17.13
2022-09-11T22:30:31.910Z,17.05
2022-09-11T22:32:59.790Z,16.88
2022-09-11T22:35:26.851Z,17.02
2022-09-11T22:37:53.380Z,16.97
2022-09-11T22:40:19.934Z,16.79
2022-09-11T22:42:47.002Z,16.84
2022-09-11T22:45:13.505Z,16.83
2022-09-11T22:47:42.620Z,16.74
2022-09-11T22:50:09.390Z,16.63
2022-09-11T22:52:37.383Z,16.79
2022-09-11T22:55:05.170Z,16.66
2022-09-11T22:57:31.688Z,16.48
2022-09-11T22:59:59.000Z,16.36
2022-09-11T23:02:27.044Z,16.30
2022-09-11T23:05:13.750Z,16.42
2022-09-11T23:07:40.214Z,16.35
2022-09-11T23:10:07.455Z,16.41
2022-09-11T23:12:34.009Z,16.31
2022-09-11T23:15:02.978Z,16.49
2022-09-11T23:17:29.625Z,16.45
2022-09-11T23:19:56.146Z,16.50
2022-09-11T23:22:22.928Z,16.50
2022-09-11T23:24:49.474Z,16.50
2022-09-11T23:27:15.977Z,16.45
2022-09-11T23:29:44.950Z,16.39
2022-09-11T23:32:11.603Z,16.32
2022-09-11T23:34:38.191Z,16.43
2022-09-11T23:37:04.767Z,16.39
2022-09-11T23:39:31.413Z,16.45
2022-09-11T23:41:57.931Z,16.43
2022-09-11T23:44:24.483Z,16.24
2022-09-11T23:46:50.991Z,16.21
2022-09-11T23:49:17.529Z,16.18
2022-09-11T23:51:44.470Z,16.16
2022-09-11T23:54:10.950Z,16.15
2022-09-11T23:56:37.453Z,16.13
2022-09-11T23:59:03.975Z,15.92
